Time;durP1;ratioP1;P1;durP2;ratioP2;P2;SDS_P1;SDS_P2;PMS_P1;PMS_P2;Temp;Humidity;BMP_temperature;BMP_pressure;BME280_temperature;BME280_humidity;BME280_pressure;Samples;Min_cycle;Max_cycle;Signal;HPM_P1;HPM_P2
2021/09/15 00:00:04;;;;;;;0.00;0.00;;;19.30;99.90;;;;;;5033348;28;20040;-76
2021/09/15 00:02:30;;;;;;;0.10;0.10;;;19.30;99.90;;;;;;5033395;28;20112;-76
2021/09/15 00:04:55;;;;;;;0.10;0.10;;;19.30;99.90;;;;;;5034458;28;20410;-78
2021/09/15 00:07:21;;;;;;;0.10;0.10;;;19.40;99.90;;;;;;5034517;28;20032;-77
2021/09/15 00:09:47;;;;;;;0.50;0.50;;;19.50;99.90;;;;;;5033098;28;20535;-77
2021/09/15 00:12:12;;;;;;;0.20;0.20;;;19.50;99.90;;;;;;5033128;28;20026;-76
2021/09/15 00:14:38;;;;;;;0.10;0.10;;;19.40;99.90;;;;;;5034345;28;20029;-77
2021/09/15 00:17:04;;;;;;;0.17;0.17;;;19.40;99.90;;;;;;5034100;28;20021;-76
2021/09/15 00:19:30;;;;;;;0.08;0.08;;;19.30;99.90;;;;;;5016444;28;20057;-77
2021/09/15 00:21:55;;;;;;;0.10;0.10;;;19.20;99.90;;;;;;5034220;28;20022;-77
2021/09/15 00:24:21;;;;;;;0.10;0.10;;;19.30;99.90;;;;;;5033015;28;20022;-76
2021/09/15 00:26:47;;;;;;;0.13;0.13;;;19.30;99.90;;;;;;5032645;28;20094;-76
2021/09/15 00:29:13;;;;;;;0.17;0.17;;;19.40;99.90;;;;;;5034162;28;20101;-76
2021/09/15 00:31:39;;;;;;;0.10;0.10;;;19.40;99.90;;;;;;5033930;28;20068;-76
2021/09/15 00:34:04;;;;;;;0.20;0.20;;;19.30;99.90;;;;;;5033865;28;20110;-77
2021/09/15 00:36:30;;;;;;;0.10;0.10;;;19.30;99.90;;;;;;5033688;28;20056;-77
2021/09/15 00:38:56;;;;;;;0.10;0.10;;;19.30;99.90;;;;;;5016033;28;20456;-76
2021/09/15 00:41:21;;;;;;;0.10;0.10;;;19.50;99.90;;;;;;5016127;28;20124;-76
2021/09/15 00:44:08;;;;;;;0.90;0.90;;;19.50;99.90;;;;;;5033895;28;20097;-76
2021/09/15 00:46:34;;;;;;;0.10;0.10;;;19.40;99.90;;;;;;5032317;28;20044;-76
2021/09/15 00:49:00;;;;;;;0.10;0.10;;;19.40;99.90;;;;;;5015870;28;20029;-76
2021/09/15 00:51:27;;;;;;;0.10;0.10;;;19.50;99.90;;;;;;5015985;28;20029;-76
2021/09/15 00:53:53;;;;;;;0.10;0.10;;;19.60;99.90;;;;;;5032311;28;20025;-76
2021/09/15 00:56:19;;;;;;;0.10;0.10;;;19.60;99.90;;;;;;5033385;28;20056;-76
2021/09/15 00:58:45;;;;;;;0.10;0.10;;;19.60;99.90;;;;;;5015724;28;20393;-77
2021/09/15 01:01:11;;;;;;;0.10;0.10;;;19.50;99.90;;;;;;5032152;28;20048;-77
2021/09/15 01:03:37;;;;;;;0.08;0.08;;;19.50;99.90;;;;;;5032212;28;20056;-77
2021/09/15 01:06:03;;;;;;;0.10;0.10;;;19.60;99.90;;;;;;5015056;28;20064;-77
2021/09/15 01:08:30;;;;;;;0.10;0.10;;;19.60;99.90;;;;;;5015596;28;20057;-76
2021/09/15 01:10:56;;;;;;;0.17;0.17;;;19.70;99.90;;;;;;5032069;28;20056;-76
2021/09/15 01:13:24;;;;;;;0.20;0.17;;;19.60;99.90;;;;;;5032118;28;20436;-76
2021/09/15 01:15:49;;;;;;;0.10;0.10;;;19.50;99.90;;;;;;5033374;28;20029;-77
2021/09/15 01:18:17;;;;;;;0.05;0.05;;;19.40;99.90;;;;;;5031928;28;20029;-77
2021/09/15 01:20:43;;;;;;;0.10;0.10;;;19.20;99.90;;;;;;5031931;28;20095;-76
2021/09/15 01:23:09;;;;;;;0.10;0.10;;;19.10;99.90;;;;;;5031818;28;20077;-76
2021/09/15 01:25:35;;;;;;;0.95;0.95;;;19.00;99.90;;;;;;5015348;28;20077;-76
2021/09/15 01:28:01;;;;;;;0.10;0.10;;;19.20;99.90;;;;;;5015258;28;20104;-76
2021/09/15 01:30:26;;;;;;;0.10;0.10;;;19.30;99.90;;;;;;5032960;28;20033;-76
2021/09/15 01:32:52;;;;;;;0.10;0.10;;;19.40;99.90;;;;;;5015400;28;20108;-76
2021/09/15 01:35:18;;;;;;;0.10;0.10;;;19.50;99.90;;;;;;5032827;28;20092;-76
2021/09/15 01:37:44;;;;;;;0.15;0.15;;;19.50;99.90;;;;;;5032995;28;20071;-76
2021/09/15 01:40:10;;;;;;;0.10;0.10;;;19.50;99.90;;;;;;5031703;28;20468;-77
2021/09/15 01:42:36;;;;;;;0.10;0.10;;;19.50;99.90;;;;;;5015115;28;20450;-76
2021/09/15 01:45:04;;;;;;;0.10;0.10;;;19.60;99.90;;;;;;5031433;28;20032;-76
2021/09/15 01:47:30;;;;;;;0.20;0.20;;;19.60;99.90;;;;;;5032768;28;20072;-76
2021/09/15 01:49:56;;;;;;;0.10;0.10;;;19.60;99.90;;;;;;5047261;22;20512;-78
2021/09/15 01:52:22;;;;;;;0.30;0.30;;;19.40;99.90;;;;;;5034060;28;20498;-78
2021/09/15 01:54:47;;;;;;;0.20;0.20;;;19.40;99.90;;;;;;5034819;28;20017;-76
2021/09/15 01:57:14;;;;;;;0.10;0.10;;;19.30;99.90;;;;;;5033557;28;20026;-76
2021/09/15 01:59:40;;;;;;;0.10;0.10;;;19.10;99.90;;;;;;5033550;28;20017;-76
2021/09/15 02:02:10;;;;;;;0.15;0.15;;;18.90;99.90;;;;;;5015782;28;20037;-76
2021/09/15 02:04:37;;;;;;;0.10;0.10;;;18.90;99.90;;;;;;5016000;28;20021;-77
2021/09/15 02:07:02;;;;;;;0.10;0.10;;;19.10;99.90;;;;;;5033499;28;20424;-77
2021/09/15 02:09:28;;;;;;;0.10;0.10;;;19.20;99.90;;;;;;5015817;28;20090;-77
2021/09/15 02:11:54;;;;;;;0.10;0.10;;;19.40;99.90;;;;;;5032684;28;20064;-76
2021/09/15 02:14:20;;;;;;;0.10;0.10;;;19.70;99.90;;;;;;5033462;28;20083;-77
2021/09/15 02:16:46;;;;;;;0.45;0.45;;;19.70;99.90;;;;;;5015440;28;20306;-76
2021/09/15 02:19:12;;;;;;;0.20;0.20;;;19.70;99.90;;;;;;5037601;28;20030;-76
2021/09/15 02:21:39;;;;;;;0.20;0.20;;;19.50;99.90;;;;;;5036075;28;20072;-77
2021/09/15 02:24:05;;;;;;;0.10;0.10;;;19.50;99.90;;;;;;5036484;28;20026;-76
2021/09/15 02:26:31;;;;;;;0.20;0.20;;;19.30;99.90;;;;;;5019871;28;20456;-76
2021/09/15 02:28:58;;;;;;;0.10;0.10;;;19.30;99.90;;;;;;5036170;28;20083;-76
2021/09/15 02:31:24;;;;;;;0.08;0.08;;;19.20;99.90;;;;;;5037606;28;20033;-76
2021/09/15 02:33:50;;;;;;;0.10;0.10;;;19.30;99.90;;;;;;5037096;28;20025;-77
2021/09/15 02:36:16;;;;;;;0.10;0.10;;;19.30;99.90;;;;;;5035934;28;20061;-76
2021/09/15 02:38:42;;;;;;;0.10;0.10;;;19.20;99.90;;;;;;5035612;28;20026;-76
2021/09/15 02:41:08;;;;;;;0.10;0.10;;;19.10;99.90;;;;;;5019726;28;20132;-76
2021/09/15 02:43:34;;;;;;;0.20;0.20;;;18.80;99.90;;;;;;5036039;28;20389;-76
2021/09/15 02:45:59;;;;;;;0.10;0.10;;;18.70;99.90;;;;;;5020168;28;20524;-77
2021/09/15 02:48:25;;;;;;;0.00;0.00;;;18.60;99.90;;;;;;5036770;28;20025;-76
2021/09/15 02:50:51;;;;;;;0.10;0.10;;;18.60;99.90;;;;;;5036387;28;20033;-76
2021/09/15 02:53:17;;;;;;;0.10;0.10;;;18.50;99.90;;;;;;5036722;28;20025;-76
2021/09/15 02:55:43;;;;;;;0.10;0.10;;;18.40;99.90;;;;;;5038326;28;20232;-77
2021/09/15 02:58:09;;;;;;;0.20;0.20;;;18.30;99.90;;;;;;5019598;28;20108;-77
2021/09/15 03:00:35;;;;;;;0.10;0.10;;;18.30;99.90;;;;;;5036593;28;20363;-77
2021/09/15 03:03:02;;;;;;;0.10;0.10;;;18.20;99.90;;;;;;5036439;28;20018;-76
2021/09/15 03:05:28;;;;;;;4.55;1.98;;;18.10;99.90;;;;;;5020354;28;20055;-76
2021/09/15 03:07:54;;;;;;;0.10;0.10;;;18.10;99.90;;;;;;5036379;28;20400;-77
2021/09/15 03:10:20;;;;;;;0.20;0.20;;;18.10;99.90;;;;;;5020033;28;20021;-77
2021/09/15 03:12:45;;;;;;;1.55;1.30;;;18.00;99.90;;;;;;5036580;28;20025;-77
2021/09/15 03:15:11;;;;;;;0.13;0.13;;;18.20;99.90;;;;;;5038235;28;20385;-77
2021/09/15 03:17:37;;;;;;;0.10;0.10;;;18.20;99.90;;;;;;5036000;28;20025;-77
2021/09/15 03:20:05;;;;;;;0.10;0.10;;;18.10;99.90;;;;;;5038281;28;20017;-77
2021/09/15 03:22:31;;;;;;;0.10;0.10;;;18.00;99.90;;;;;;5019943;28;20053;-76
2021/09/15 03:24:57;;;;;;;0.10;0.10;;;18.10;99.90;;;;;;5035349;28;20031;-77
2021/09/15 03:27:22;;;;;;;0.20;0.20;;;18.00;99.90;;;;;;5036553;28;20096;-77
2021/09/15 03:29:48;;;;;;;0.17;0.17;;;17.90;99.90;;;;;;5035823;28;20026;-76
2021/09/15 03:32:14;;;;;;;0.10;0.10;;;17.90;99.90;;;;;;5035792;28;20093;-76
2021/09/15 03:34:40;;;;;;;0.10;0.10;;;17.90;99.90;;;;;;5037744;28;20526;-76
2021/09/15 03:37:06;;;;;;;0.10;0.10;;;17.80;99.90;;;;;;5036145;28;20030;-77
2021/09/15 03:39:32;;;;;;;0.30;0.30;;;17.70;99.90;;;;;;5037078;28;20021;-77
2021/09/15 03:41:57;;;;;;;0.10;0.10;;;17.70;99.90;;;;;;5036268;28;20045;-77
2021/09/15 03:44:23;;;;;;;0.10;0.10;;;17.90;99.90;;;;;;5019582;28;20029;-77
2021/09/15 03:46:50;;;;;;;0.35;0.30;;;18.00;99.90;;;;;;5036192;28;20124;-77
2021/09/15 03:49:16;;;;;;;0.20;0.20;;;17.80;99.90;;;;;;5037329;28;20029;-78
2021/09/15 03:51:42;;;;;;;0.10;0.10;;;17.50;99.90;;;;;;5038858;28;20030;-78
2021/09/15 03:54:07;;;;;;;0.10;0.10;;;17.40;99.90;;;;;;5039055;28;20039;-79
2021/09/15 03:56:33;;;;;;;2.05;0.65;;;17.40;99.90;;;;;;5038792;28;20033;-79
2021/09/15 03:58:59;;;;;;;0.10;0.10;;;17.50;99.90;;;;;;5039270;28;20030;-79
2021/09/15 04:01:24;;;;;;;0.15;0.15;;;17.50;99.90;;;;;;5038439;28;20477;-79
2021/09/15 04:03:50;;;;;;;0.20;0.20;;;17.80;99.90;;;;;;5038678;28;20029;-79
2021/09/15 04:06:16;;;;;;;0.10;0.10;;;17.80;99.90;;;;;;5021836;28;20588;-79
2021/09/15 04:08:41;;;;;;;0.10;0.10;;;17.80;99.90;;;;;;5039399;28;20029;-78
2021/09/15 04:11:07;;;;;;;0.10;0.10;;;17.70;99.90;;;;;;5040019;28;20036;-79
2021/09/15 04:13:33;;;;;;;0.10;0.10;;;17.60;99.90;;;;;;5040676;28;20052;-78
2021/09/15 04:15:59;;;;;;;0.10;0.10;;;17.60;99.90;;;;;;5022129;28;20025;-79
2021/09/15 04:18:24;;;;;;;0.10;0.10;;;17.60;99.90;;;;;;5037310;28;20366;-79
2021/09/15 04:20:50;;;;;;;0.10;0.10;;;17.70;99.90;;;;;;5019237;28;20025;-78
2021/09/15 04:23:25;;;;;;;0.10;0.10;;;17.90;99.90;;;;;;5036107;28;20105;-78
2021/09/15 04:31:26;;;;;;;0.10;0.10;;;17.70;99.90;;;;;;5036074;28;20125;-78
2021/09/15 04:33:53;;;;;;;0.90;0.90;;;17.60;99.90;;;;;;5035709;28;20378;-78
2021/09/15 04:36:20;;;;;;;0.10;0.10;;;17.50;99.90;;;;;;5035416;28;20473;-78
2021/09/15 04:38:47;;;;;;;0.10;0.10;;;17.50;99.90;;;;;;5019021;28;20064;-78
2021/09/15 04:41:13;;;;;;;0.10;0.10;;;17.60;99.90;;;;;;5034591;28;20028;-79
2021/09/15 04:43:40;;;;;;;0.10;0.10;;;17.70;99.90;;;;;;5037584;28;20021;-79
2021/09/15 04:46:06;;;;;;;0.10;0.10;;;17.90;99.90;;;;;;5035315;28;20660;-79
2021/09/15 04:48:31;;;;;;;0.10;0.10;;;18.00;99.90;;;;;;5034970;28;20036;-79
2021/09/15 04:50:57;;;;;;;0.32;0.32;;;18.00;99.90;;;;;;5035590;28;20100;-79
2021/09/15 04:53:23;;;;;;;0.30;0.30;;;18.20;99.90;;;;;;5034796;28;20035;-79
2021/09/15 04:55:49;;;;;;;0.50;0.50;;;18.20;99.90;;;;;;5035920;28;20192;-78
2021/09/15 04:58:15;;;;;;;0.38;0.38;;;18.00;99.90;;;;;;5035096;28;20068;-79
2021/09/15 05:00:40;;;;;;;0.20;0.20;;;17.90;99.90;;;;;;5035022;28;20465;-79
2021/09/15 05:03:06;;;;;;;0.13;0.13;;;17.90;99.90;;;;;;5035531;28;20025;-78
2021/09/15 05:05:32;;;;;;;0.20;0.20;;;18.00;99.90;;;;;;5043726;28;20113;-79
2021/09/15 05:07:58;;;;;;;0.10;0.10;;;18.00;99.90;;;;;;5040929;28;20096;-78
2021/09/15 05:10:26;;;;;;;0.32;0.32;;;18.10;99.90;;;;;;5055498;28;20021;-78
2021/09/15 05:12:53;;;;;;;0.10;0.10;;;18.00;99.90;;;;;;5045082;28;20057;-78
2021/09/15 05:15:19;;;;;;;6.65;3.90;;;17.90;99.90;;;;;;5019692;28;20028;-78
2021/09/15 05:17:45;;;;;;;0.10;0.10;;;17.90;99.90;;;;;;5020653;28;20025;-79
2021/09/15 05:20:12;;;;;;;11.88;1.58;;;17.80;99.90;;;;;;5039531;28;20026;-79
2021/09/15 05:22:38;;;;;;;0.50;0.50;;;17.70;99.90;;;;;;5048441;28;20392;-79
2021/09/15 05:25:04;;;;;;;0.10;0.10;;;17.70;99.90;;;;;;5037411;28;20045;-79
2021/09/15 05:27:30;;;;;;;0.38;0.38;;;17.80;99.90;;;;;;5037287;28;20385;-79
2021/09/15 05:29:55;;;;;;;0.10;0.10;;;18.00;99.90;;;;;;5038617;28;20018;-79
2021/09/15 05:32:21;;;;;;;0.10;0.10;;;18.00;99.90;;;;;;5019997;28;20060;-79
2021/09/15 05:34:47;;;;;;;0.10;0.10;;;18.10;99.90;;;;;;5019079;28;20493;-78
2021/09/15 05:37:13;;;;;;;0.10;0.10;;;18.10;99.90;;;;;;5041598;28;20035;-78
2021/09/15 05:39:39;;;;;;;3.80;1.33;;;18.10;99.90;;;;;;5046663;28;20029;-78
2021/09/15 05:42:04;;;;;;;0.10;0.10;;;18.30;99.90;;;;;;5058819;28;20025;-78
2021/09/15 05:44:30;;;;;;;0.30;0.30;;;18.40;99.90;;;;;;5028884;28;20025;-79
2021/09/15 05:46:56;;;;;;;0.10;0.10;;;18.30;99.90;;;;;;5037137;28;20021;-79
2021/09/15 05:49:21;;;;;;;1.65;0.93;;;18.30;99.90;;;;;;5039086;28;20063;-78
2021/09/15 05:51:47;;;;;;;0.25;0.25;;;18.20;99.90;;;;;;5037002;28;20387;-78
2021/09/15 05:54:13;;;;;;;0.10;0.10;;;18.30;99.90;;;;;;5020192;28;20370;-78
2021/09/15 05:56:39;;;;;;;0.10;0.10;;;18.30;99.90;;;;;;5036089;28;20026;-79
2021/09/15 05:59:04;;;;;;;0.10;0.10;;;18.40;99.90;;;;;;5038522;28;20373;-79
2021/09/15 06:01:30;;;;;;;0.10;0.10;;;18.40;99.90;;;;;;5037487;28;20477;-79
2021/09/15 06:03:56;;;;;;;0.85;0.85;;;18.50;99.90;;;;;;5036677;28;20093;-78
2021/09/15 06:06:22;;;;;;;0.10;0.10;;;18.40;99.90;;;;;;5033151;28;20441;-78
2021/09/15 06:08:47;;;;;;;0.10;0.10;;;18.30;99.90;;;;;;5035657;28;20028;-78
2021/09/15 06:11:13;;;;;;;0.55;0.55;;;18.20;99.90;;;;;;5015870;28;20021;-78
2021/09/15 06:13:39;;;;;;;0.82;0.82;;;18.30;99.90;;;;;;5031101;28;20393;-77
2021/09/15 06:16:06;;;;;;;0.10;0.10;;;18.40;99.90;;;;;;5014118;28;20086;-77
2021/09/15 06:18:33;;;;;;;0.10;0.10;;;18.60;99.90;;;;;;5030303;28;20018;-77
2021/09/15 06:21:00;;;;;;;0.10;0.10;;;18.70;99.90;;;;;;5030186;28;20076;-76
2021/09/15 06:23:26;;;;;;;0.10;0.10;;;18.90;99.90;;;;;;5032103;28;20099;-77
2021/09/15 06:25:52;;;;;;;0.22;0.22;;;19.10;99.90;;;;;;5015328;28;20061;-77
2021/09/15 06:28:18;;;;;;;0.73;0.73;;;19.10;99.90;;;;;;5015801;28;20029;-77
2021/09/15 06:30:45;;;;;;;0.70;0.70;;;18.80;99.90;;;;;;5033145;28;20115;-78
2021/09/15 06:33:11;;;;;;;2.90;1.60;;;18.90;99.90;;;;;;5030739;28;20091;-76
2021/09/15 06:35:36;;;;;;;0.20;0.20;;;18.80;99.90;;;;;;5030611;28;20473;-76
2021/09/15 06:38:02;;;;;;;0.10;0.10;;;18.70;99.90;;;;;;5028875;28;20025;-75
2021/09/15 06:40:28;;;;;;;0.10;0.10;;;18.80;99.90;;;;;;5019511;28;20873;-76
2021/09/15 06:42:54;;;;;;;0.90;0.85;;;19.00;99.90;;;;;;5035433;28;20018;-77
2021/09/15 06:45:20;;;;;;;0.10;0.10;;;19.10;99.90;;;;;;5035269;28;20054;-75
2021/09/15 06:47:46;;;;;;;0.10;0.10;;;19.00;99.90;;;;;;5029048;28;20354;-74
2021/09/15 06:50:13;;;;;;;0.10;0.10;;;18.90;99.90;;;;;;5028054;28;20036;-75
2021/09/15 06:52:39;;;;;;;0.10;0.10;;;18.90;99.90;;;;;;5015925;28;20477;-73
2021/09/15 06:55:06;;;;;;;0.40;0.40;;;19.10;99.90;;;;;;5029891;28;20032;-74
2021/09/15 06:57:31;;;;;;;0.10;0.10;;;19.20;99.90;;;;;;5029166;28;20032;-74
2021/09/15 06:59:57;;;;;;;0.10;0.10;;;19.20;99.90;;;;;;5012405;28;20029;-73
2021/09/15 07:02:25;;;;;;;0.20;0.20;;;19.30;99.90;;;;;;5029952;28;20036;-73
2021/09/15 07:04:51;;;;;;;0.00;0.00;;;19.30;99.90;;;;;;5033195;28;20026;-73
2021/09/15 07:07:17;;;;;;;0.10;0.10;;;19.30;99.90;;;;;;5016335;28;20029;-73
2021/09/15 07:09:43;;;;;;;0.00;0.00;;;19.40;99.90;;;;;;5034086;28;20036;-73
2021/09/15 07:12:09;;;;;;;0.32;0.32;;;19.50;99.90;;;;;;5033019;28;20034;-73
2021/09/15 07:14:35;;;;;;;0.13;0.13;;;19.50;99.90;;;;;;5032426;28;20029;-73
2021/09/15 07:17:00;;;;;;;1.80;1.40;;;19.60;99.90;;;;;;5032598;28;20045;-73
2021/09/15 07:19:26;;;;;;;0.70;0.70;;;19.50;99.90;;;;;;5014891;28;20028;-73
2021/09/15 07:21:52;;;;;;;0.10;0.10;;;19.20;99.90;;;;;;5032014;28;20064;-73
2021/09/15 07:24:18;;;;;;;0.20;0.20;;;19.30;99.90;;;;;;5031831;28;20032;-73
2021/09/15 07:26:44;;;;;;;1.85;1.75;;;19.30;99.90;;;;;;5031926;28;20056;-73
2021/09/15 07:29:10;;;;;;;0.55;0.55;;;19.10;99.90;;;;;;5030613;28;20036;-73
2021/09/15 07:31:38;;;;;;;0.10;0.10;;;19.20;99.90;;;;;;5030349;28;20056;-74
2021/09/15 07:34:07;;;;;;;0.28;0.28;;;19.40;99.90;;;;;;5032283;28;20029;-73
2021/09/15 07:36:36;;;;;;;0.20;0.20;;;19.60;99.90;;;;;;5033435;28;20032;-75
2021/09/15 07:39:03;;;;;;;0.20;0.20;;;19.80;99.90;;;;;;5033605;28;20098;-75
2021/09/15 07:41:29;;;;;;;0.10;0.10;;;20.00;99.90;;;;;;5033203;28;20026;-76
2021/09/15 07:43:55;;;;;;;0.30;0.30;;;20.20;99.90;;;;;;5034720;28;20028;-77
2021/09/15 07:46:22;;;;;;;0.10;0.10;;;20.30;99.90;;;;;;5033102;28;20022;-76
2021/09/15 07:48:49;;;;;;;0.90;0.90;;;20.30;99.90;;;;;;5032214;28;20477;-76
2021/09/15 07:51:15;;;;;;;3.97;1.75;;;20.40;99.90;;;;;;5033568;28;20030;-76
2021/09/15 07:53:41;;;;;;;0.03;0.03;;;20.30;99.90;;;;;;5033736;28;20025;-76
2021/09/15 07:56:07;;;;;;;0.47;0.30;;;20.50;99.90;;;;;;5033055;28;20101;-76
2021/09/15 07:58:33;;;;;;;4.25;2.83;;;20.60;99.90;;;;;;5015798;28;20022;-76
2021/09/15 08:00:59;;;;;;;0.43;0.43;;;20.80;99.90;;;;;;5033419;28;20018;-76
2021/09/15 08:03:25;;;;;;;0.10;0.10;;;20.90;99.90;;;;;;5029208;28;20021;-76
2021/09/15 08:05:51;;;;;;;0.20;0.20;;;21.10;99.90;;;;;;5031871;28;20018;-76
2021/09/15 08:08:17;;;;;;;0.10;0.10;;;21.20;99.90;;;;;;5033422;28;20507;-76
2021/09/15 08:10:42;;;;;;;0.15;0.15;;;21.30;99.90;;;;;;5031981;28;20029;-76
2021/09/15 08:13:08;;;;;;;0.63;0.63;;;21.50;99.90;;;;;;5027258;28;20026;-76
2021/09/15 08:15:35;;;;;;;0.00;0.00;;;21.60;99.90;;;;;;5032643;28;20044;-76
2021/09/15 08:18:00;;;;;;;3.55;1.95;;;21.70;99.90;;;;;;5015387;28;20033;-76
2021/09/15 08:20:26;;;;;;;0.10;0.10;;;21.80;99.90;;;;;;5031559;28;20481;-76
2021/09/15 08:22:52;;;;;;;0.88;0.75;;;21.80;99.90;;;;;;5033485;28;20022;-76
2021/09/15 08:25:18;;;;;;;0.10;0.10;;;21.90;99.90;;;;;;5032907;28;20022;-77
2021/09/15 08:27:44;;;;;;;0.00;0.00;;;22.00;99.90;;;;;;5033100;28;20493;-76
2021/09/15 08:30:11;;;;;;;0.10;0.10;;;22.10;99.90;;;;;;5032849;28;20028;-76
2021/09/15 08:32:38;;;;;;;0.10;0.10;;;22.10;99.90;;;;;;5031228;28;20033;-72
2021/09/15 08:35:04;;;;;;;4.90;0.93;;;22.20;99.90;;;;;;5031052;28;20560;-72
2021/09/15 08:37:37;;;;;;;0.00;0.00;;;22.30;99.90;;;;;;5014838;28;20036;-75
2021/09/15 08:40:05;;;;;;;0.73;0.73;;;22.50;99.90;;;;;;5026509;28;20104;-76
2021/09/15 08:42:32;;;;;;;0.03;0.03;;;22.40;99.90;;;;;;5014742;28;20541;-75
2021/09/15 08:44:58;;;;;;;0.10;0.10;;;22.50;99.90;;;;;;5030832;28;20109;-76
2021/09/15 08:47:26;;;;;;;0.10;0.10;;;22.60;99.90;;;;;;5032751;28;20033;-76
2021/09/15 08:49:52;;;;;;;0.00;0.00;;;22.70;99.90;;;;;;5031003;28;20485;-76
2021/09/15 08:52:18;;;;;;;0.20;0.20;;;22.80;99.90;;;;;;5031538;28;20035;-76
2021/09/15 08:54:44;;;;;;;0.10;0.10;;;22.80;99.90;;;;;;5032797;28;20112;-77
2021/09/15 08:57:09;;;;;;;3.88;1.90;;;22.70;99.90;;;;;;5014176;28;20108;-76
2021/09/15 08:59:35;;;;;;;0.47;0.47;;;22.50;98.20;;;;;;5032310;28;20025;-76
2021/09/15 09:02:12;;;;;;;0.08;0.08;;;22.40;98.20;;;;;;5031049;28;20083;-76
2021/09/15 09:04:58;;;;;;;0.43;0.43;;;22.40;98.90;;;;;;5032272;28;20018;-76
2021/09/15 09:07:25;;;;;;;0.00;0.00;;;22.60;99.00;;;;;;5014442;28;20120;-76
2021/09/15 09:09:53;;;;;;;0.08;0.08;;;22.70;98.10;;;;;;5026468;28;20596;-76
2021/09/15 09:12:22;;;;;;;0.00;0.00;;;22.80;98.40;;;;;;5030653;28;20030;-76
2021/09/15 09:14:48;;;;;;;0.20;0.20;;;22.90;97.70;;;;;;5014461;28;20025;-76
2021/09/15 09:17:33;;;;;;;0.30;0.30;;;23.00;96.90;;;;;;5031682;28;20108;-76
2021/09/15 09:20:20;;;;;;;0.20;0.20;;;23.20;94.90;;;;;;5030612;28;20071;-76
2021/09/15 09:23:05;;;;;;;0.05;0.05;;;23.30;94.70;;;;;;5027593;28;20043;-76
2021/09/15 09:25:53;;;;;;;0.10;0.10;;;23.30;93.80;;;;;;5030218;28;20028;-76
2021/09/15 09:28:22;;;;;;;0.10;0.10;;;23.40;92.80;;;;;;5031025;28;20052;-76
2021/09/15 09:30:51;;;;;;;1.95;0.95;;;23.30;92.60;;;;;;5031644;28;20157;-76
2021/09/15 09:33:17;;;;;;;0.03;0.03;;;23.30;92.00;;;;;;5032901;28;20018;-76
2021/09/15 09:36:06;;;;;;;0.00;0.00;;;23.30;91.60;;;;;;5030261;28;20083;-76
2021/09/15 09:38:38;;;;;;;0.20;0.20;;;23.40;91.40;;;;;;5027001;28;20018;-76
2021/09/15 09:41:15;;;;;;;0.52;0.52;;;23.30;90.20;;;;;;5033864;28;20021;-76
2021/09/15 09:43:45;;;;;;;0.85;0.85;;;23.40;90.80;;;;;;5025863;28;20028;-76
2021/09/15 09:46:13;;;;;;;0.00;0.00;;;23.80;90.90;;;;;;5030326;28;20048;-76
2021/09/15 09:48:44;;;;;;;0.75;0.45;;;24.30;89.90;;;;;;5029577;28;20805;-75
2021/09/15 09:51:46;;;;;;;0.00;0.00;;;24.70;87.50;;;;;;5014952;28;20035;-76
2021/09/15 09:54:24;;;;;;;0.08;0.08;;;25.10;85.60;;;;;;4925557;28;20069;-76
2021/09/15 09:56:51;;;;;;;0.25;0.25;;;25.30;82.60;;;;;;5033996;28;20575;-76
2021/09/15 09:59:19;;;;;;;1.08;0.65;;;25.50;82.10;;;;;;5032921;28;20018;-76
2021/09/15 10:41:33;;;;;;;0.57;0.57;;;25.80;76.30;;;;;;5093238;27;20904;-77
2021/09/15 10:44:15;;;;;;;0.40;0.40;;;25.70;77.50;;;;;;5075507;28;20047;-77
2021/09/15 10:46:42;;;;;;;0.10;0.10;;;25.60;77.60;;;;;;5094649;28;20533;-78
2021/09/15 10:49:23;;;;;;;0.10;0.10;;;25.60;79.00;;;;;;5094634;28;20021;-77
2021/09/15 10:52:10;;;;;;;0.47;0.47;;;25.80;79.50;;;;;;5091820;28;20024;-77
2021/09/15 10:54:40;;;;;;;3.25;1.83;;;26.00;79.80;;;;;;5091683;28;20035;-78
2021/09/15 10:57:11;;;;;;;0.10;0.10;;;26.20;79.10;;;;;;5090544;28;20024;-77
2021/09/15 10:59:52;;;;;;;1.10;1.00;;;26.30;76.50;;;;;;5089241;28;20037;-78
2021/09/15 11:02:25;;;;;;;2.85;0.70;;;26.20;76.40;;;;;;5090069;28;20586;-78
2021/09/15 11:04:51;;;;;;;1.27;0.95;;;26.00;76.40;;;;;;5091707;28;20051;-78
2021/09/15 11:07:44;;;;;;;0.10;0.10;;;26.00;76.90;;;;;;5090613;28;20043;-78
2021/09/15 11:10:34;;;;;;;9.00;1.48;;;25.80;77.10;;;;;;5070579;28;20143;-77
2021/09/15 11:13:39;;;;;;;0.82;0.82;;;25.80;77.10;;;;;;5074793;28;20032;-78
2021/09/15 11:16:25;;;;;;;1.88;1.55;;;25.80;76.20;;;;;;5092214;28;20039;-78
2021/09/15 11:18:56;;;;;;;3.20;1.48;;;25.80;77.40;;;;;;5093186;28;20025;-77
2021/09/15 11:21:23;;;;;;;2.10;1.00;;;25.70;76.90;;;;;;5092014;28;20032;-77
2021/09/15 11:23:56;;;;;;;1.05;1.05;;;25.80;78.20;;;;;;5093154;28;20118;-78
2021/09/15 11:26:46;;;;;;;0.20;0.20;;;25.90;77.40;;;;;;5093939;28;20024;-77
2021/09/15 11:29:14;;;;;;;0.10;0.10;;;26.30;77.30;;;;;;5093940;28;20028;-78
2021/09/15 11:31:41;;;;;;;3.60;2.53;;;26.40;76.50;;;;;;5092517;28;20035;-77
2021/09/15 11:34:13;;;;;;;0.63;0.63;;;26.80;75.90;;;;;;5089747;28;20059;-78
2021/09/15 11:36:47;;;;;;;1.27;1.17;;;26.70;75.80;;;;;;5092084;28;20384;-78
2021/09/15 11:39:17;;;;;;;0.68;0.50;;;26.60;75.40;;;;;;5092444;28;20028;-77
2021/09/15 11:41:42;;;;;;;0.70;0.35;;;26.40;76.30;;;;;;5074656;28;20017;-78
2021/09/15 11:44:08;;;;;;;1.35;1.25;;;26.00;77.60;;;;;;5090710;28;20031;-78
2021/09/15 11:46:37;;;;;;;0.60;0.52;;;26.00;78.50;;;;;;5090946;28;20024;-77
2021/09/15 11:49:04;;;;;;;3.63;1.85;;;26.00;79.40;;;;;;5074092;28;20024;-77
2021/09/15 11:51:33;;;;;;;0.00;0.00;;;25.90;79.20;;;;;;5085152;28;20519;-78
2021/09/15 11:56:41;;;;;;;1.25;1.15;;;25.80;79.30;;;;;;5076851;28;20059;-77
2021/09/15 11:59:09;;;;;;;0.20;0.20;;;25.40;78.80;;;;;;5077419;28;20024;-77
2021/09/15 12:01:38;;;;;;;0.75;0.75;;;25.30;80.70;;;;;;5076082;28;20035;-76
2021/09/15 12:04:07;;;;;;;0.60;0.60;;;25.20;80.90;;;;;;5071275;28;20032;-76
2021/09/15 12:06:33;;;;;;;3.25;1.75;;;25.30;80.50;;;;;;5074276;28;20021;-75
2021/09/15 12:09:00;;;;;;;4.85;4.53;;;25.30;81.00;;;;;;5071717;28;20027;-75
2021/09/15 12:11:33;;;;;;;0.20;0.20;;;25.20;81.40;;;;;;5055592;28;20111;-75
2021/09/15 12:14:00;;;;;;;0.28;0.28;;;25.00;81.90;;;;;;5071724;28;20020;-76
2021/09/15 12:16:37;;;;;;;0.10;0.10;;;24.80;83.60;;;;;;5072046;28;20388;-76
2021/09/15 12:19:13;;;;;;;0.30;0.30;;;24.80;85.20;;;;;;5071486;28;20027;-75
2021/09/15 12:21:43;;;;;;;0.00;0.00;;;24.90;85.00;;;;;;5071978;28;20025;-76
2021/09/15 12:24:09;;;;;;;0.10;0.10;;;24.90;85.10;;;;;;5071381;28;20071;-76
2021/09/15 12:26:34;;;;;;;0.00;0.00;;;24.90;85.40;;;;;;5072913;28;20496;-76
2021/09/15 12:29:03;;;;;;;0.00;0.00;;;24.90;85.10;;;;;;5072362;28;20388;-76
2021/09/15 12:31:47;;;;;;;0.30;0.30;;;24.90;85.70;;;;;;5072897;28;20088;-76
2021/09/15 12:34:33;;;;;;;0.10;0.10;;;24.90;86.20;;;;;;5072555;28;20028;-76
2021/09/15 12:37:09;;;;;;;0.80;0.40;;;25.00;86.60;;;;;;5070983;28;20016;-76
2021/09/15 12:39:46;;;;;;;2.50;1.15;;;24.70;86.40;;;;;;5070419;28;20086;-76
2021/09/15 12:42:26;;;;;;;0.52;0.52;;;24.50;86.90;;;;;;5070870;28;20071;-76
2021/09/15 12:45:08;;;;;;;1.00;0.85;;;24.40;86.70;;;;;;5067510;28;20030;-76
2021/09/15 12:47:35;;;;;;;0.70;0.70;;;24.60;86.80;;;;;;5072819;28;20538;-76
2021/09/15 12:50:10;;;;;;;0.10;0.10;;;24.50;85.70;;;;;;5070798;28;20029;-76
2021/09/15 12:52:37;;;;;;;1.65;0.20;;;24.50;86.60;;;;;;5072846;28;20037;-76
2021/09/15 12:55:03;;;;;;;0.00;0.00;;;24.50;86.90;;;;;;5070667;28;20047;-76
2021/09/15 12:57:33;;;;;;;0.00;0.00;;;24.60;87.40;;;;;;5072541;28;20100;-76
2021/09/15 13:00:22;;;;;;;0.00;0.00;;;24.60;87.10;;;;;;5067088;28;20021;-76
2021/09/15 13:02:53;;;;;;;0.10;0.10;;;24.60;87.60;;;;;;5071159;28;20016;-76
2021/09/15 13:05:19;;;;;;;;;;;24.80;87.20;;;;;;5071051;28;20078;-76
2021/09/15 13:07:45;;;;;;;0.10;0.10;;;24.90;87.00;;;;;;5072261;28;20565;-76
2021/09/15 13:10:11;;;;;;;0.10;0.10;;;24.70;87.80;;;;;;5071853;28;20060;-76
2021/09/15 13:12:37;;;;;;;0.20;0.20;;;24.70;85.30;;;;;;5071922;28;20048;-76
2021/09/15 13:15:04;;;;;;;0.55;0.43;;;24.70;84.90;;;;;;5071693;28;20104;-76
2021/09/15 13:17:31;;;;;;;0.20;0.20;;;24.70;86.10;;;;;;5070693;28;20063;-76
2021/09/15 13:19:57;;;;;;;0.75;0.75;;;24.70;88.40;;;;;;5069890;28;20024;-76
2021/09/15 13:22:23;;;;;;;0.20;0.20;;;24.70;89.70;;;;;;5070484;28;20078;-76
2021/09/15 13:24:49;;;;;;;0.28;0.28;;;24.50;89.50;;;;;;5070260;28;20033;-76
2021/09/15 13:27:15;;;;;;;0.10;0.10;;;24.70;90.10;;;;;;5071619;28;20039;-76
2021/09/15 13:29:41;;;;;;;0.00;0.00;;;24.80;90.20;;;;;;5053639;28;20111;-76
2021/09/15 13:32:09;;;;;;;0.03;0.03;;;25.00;90.30;;;;;;5070424;28;20028;-77
2021/09/15 13:34:36;;;;;;;2.75;0.40;;;25.10;89.70;;;;;;5053544;28;20567;-76
2021/09/15 13:37:02;;;;;;;0.63;0.63;;;25.20;89.80;;;;;;5070414;28;20171;-76
2021/09/15 13:39:30;;;;;;;0.47;0.47;;;25.20;90.30;;;;;;5069362;28;20028;-76